createdAt,value
2018-09-06T00:04:47.475Z,3.30
2018-09-06T00:15:49.688Z,3.29
2018-09-06T00:26:51.869Z,3.29
2018-09-06T00:37:54.034Z,3.29
2018-09-06T00:48:56.109Z,3.29
2018-09-06T00:59:57.902Z,3.28
2018-09-06T01:11:00.361Z,3.28
2018-09-06T01:22:01.168Z,3.28
2018-09-06T01:33:03.600Z,3.28
2018-09-06T01:44:02.645Z,3.28
2018-09-06T01:55:04.694Z,3.28
2018-09-06T02:06:07.294Z,3.27
2018-09-06T02:17:09.597Z,3.27
2018-09-06T02:28:11.573Z,3.27
2018-09-06T02:39:13.611Z,3.26
2018-09-06T02:50:15.514Z,3.26
2018-09-06T03:01:17.343Z,3.26
2018-09-06T03:12:19.465Z,3.26
2018-09-06T03:23:21.419Z,3.26
2018-09-06T03:34:24.319Z,3.25
2018-09-06T03:45:26.528Z,3.25
2018-09-06T03:56:28.963Z,3.25
2018-09-06T04:07:30.161Z,3.25
2018-09-06T04:18:32.217Z,3.25
2018-09-06T04:29:33.885Z,3.25
2018-09-06T04:40:35.477Z,3.25
2018-09-06T04:51:37.396Z,3.25
2018-09-06T05:02:37.967Z,3.25
2018-09-06T05:13:39.301Z,3.25
2018-09-06T05:24:41.006Z,3.25
2018-09-06T05:35:42.257Z,3.26
2018-09-06T05:46:44.970Z,3.27
2018-09-06T05:57:44.178Z,3.27
2018-09-06T06:08:32.546Z,3.28
2018-09-06T06:19:38.314Z,3.29
2018-09-06T06:30:36.805Z,3.30
2018-09-06T06:41:39.055Z,3.30
2018-09-06T06:52:40.258Z,3.30
2018-09-06T07:03:40.144Z,3.30
2018-09-06T07:14:40.987Z,3.30
2018-09-06T07:25:43.128Z,3.31
2018-09-06T07:36:45.276Z,3.34
2018-09-06T07:47:47.879Z,3.37
2018-09-06T07:58:39.886Z,3.39
2018-09-06T08:09:42.321Z,3.40
2018-09-06T08:20:42.377Z,3.40
2018-09-06T08:31:42.689Z,3.39
2018-09-06T08:42:43.362Z,3.40
2018-09-06T08:53:43.971Z,3.41
2018-09-06T09:04:35.089Z,3.42
2018-09-06T09:15:36.971Z,3.42
2018-09-06T09:26:37.885Z,3.43
2018-09-06T09:37:39.775Z,3.44
2018-09-06T09:48:39.210Z,3.45
2018-09-06T09:59:39.516Z,3.42
2018-09-06T10:10:42.217Z,3.40
2018-09-06T10:21:44.226Z,3.42
2018-09-06T10:32:41.348Z,3.40
2018-09-06T10:43:20.131Z,3.42
2018-09-06T10:54:05.173Z,3.40
2018-09-06T11:04:42.674Z,3.42
2018-09-06T11:15:36.139Z,3.40
2018-09-06T11:26:36.311Z,3.40
2018-09-06T11:37:38.547Z,3.42
2018-09-06T11:48:40.038Z,3.40
2018-09-06T11:59:41.523Z,3.40
2018-09-06T12:10:43.096Z,3.42
2018-09-06T12:21:44.416Z,3.41
2018-09-06T12:32:46.384Z,3.40
2018-09-06T12:43:45.085Z,3.42
2018-09-06T12:54:46.843Z,3.41
2018-09-06T13:05:44.007Z,3.40
2018-09-06T13:16:46.239Z,3.42
2018-09-06T13:27:49.178Z,3.41
2018-09-06T13:38:44.569Z,3.41
2018-09-06T13:49:46.987Z,3.41
2018-09-06T14:00:42.685Z,3.41
2018-09-06T14:11:40.125Z,3.40
2018-09-06T14:22:37.010Z,3.43
2018-09-06T14:33:45.992Z,3.42
2018-09-06T14:44:42.756Z,3.41
2018-09-06T14:55:43.176Z,3.40
2018-09-06T15:06:40.030Z,3.40
2018-09-06T15:17:39.670Z,3.42
2018-09-06T15:28:41.406Z,3.41
2018-09-06T15:39:41.432Z,3.40
2018-09-06T15:50:43.330Z,3.45
2018-09-06T16:01:39.161Z,3.43
2018-09-06T16:12:40.103Z,3.43
2018-09-06T16:23:39.809Z,3.43
2018-09-06T16:34:32.922Z,3.42
2018-09-06T16:45:31.098Z,3.42
2018-09-06T16:56:25.791Z,3.42
2018-09-06T17:07:26.487Z,3.41
2018-09-06T17:18:26.097Z,3.40
2018-09-06T17:29:24.780Z,3.40
2018-09-06T17:40:24.679Z,3.40
2018-09-06T17:51:25.227Z,3.39
2018-09-06T18:02:23.685Z,3.39
2018-09-06T18:13:24.069Z,3.39
2018-09-06T18:24:23.418Z,3.39
2018-09-06T18:35:22.894Z,3.38
2018-09-06T18:46:22.227Z,3.37
2018-09-06T18:57:21.472Z,3.37
2018-09-06T19:08:21.417Z,3.37
2018-09-06T19:19:17.716Z,3.37
2018-09-06T19:30:18.300Z,3.36
2018-09-06T19:41:18.964Z,3.36
2018-09-06T19:52:17.671Z,3.36
2018-09-06T20:03:18.115Z,3.36
2018-09-06T20:14:18.080Z,3.36
2018-09-06T20:25:18.465Z,3.36
2018-09-06T20:36:17.494Z,3.35
2018-09-06T20:47:16.603Z,3.34
2018-09-06T20:58:16.823Z,3.34
2018-09-06T21:09:15.694Z,3.34
2018-09-06T21:20:16.648Z,3.34
2018-09-06T21:31:19.080Z,3.34
2018-09-06T21:42:21.362Z,3.34
2018-09-06T21:53:23.348Z,3.34
2018-09-06T22:04:25.759Z,3.34
2018-09-06T22:15:27.042Z,3.34
2018-09-06T22:26:30.058Z,3.33
2018-09-06T22:37:30.772Z,3.33
2018-09-06T22:48:33.153Z,3.33
2018-09-06T22:59:34.468Z,3.33
2018-09-06T23:10:35.527Z,3.32
2018-09-06T23:21:37.079Z,3.32
2018-09-06T23:32:39.112Z,3.32
2018-09-06T23:43:40.083Z,3.32
2018-09-06T23:54:41.993Z,3.32
